METAR Data
IDs: Format: Raw Decoded Include TAF

Data at: 0013 UTC 26 Oct 2021

PAKT 252353Z 14004KT 10SM SCT060 OVC090 10/06 A2909 RMK HARBOR WND 11006KT
PAKT 252253Z 31003KT 10SM BKN065 OVC085 09/06 A2909 RMK HARBOR WND VRB03KT
PAKT 252153Z 00000KT 10SM OVC065 09/05 A2908 RMK HARBOR WND 26004KT
PAKT 252053Z 33004KT 10SM OVC065 09/05 A2908 RMK HARBOR WIND 28005KT
PAKT 251953Z 31004KT 10SM SCT085 SCT120 09/05 A2907 RMK HARBOR WIND 29007KT
PAKT 251853Z 32006KT 10SM FEW120 09/04 A2907 RMK HARBOR WIND 28006KT
PAKT 251753Z 30006KT 10SM SCT120 08/04 A2906 RMK HARBOR WINDS 27006KT
PAKT 251653Z 28005KT 10SM FEW080 07/04 A2906 RMK HARBOR WIND VRB05KT
PAKT 251553Z 30005KT 10SM BKN120 06/03 A2906 RMK HARBOR WIND 32003KT
PAKT 251453Z 30005KT 10SM OVC090 06/04 A2906 RMK AO2 SLP839 HARBOR WIND 12004KT T00610039 53002
PAKT 251415Z 29008KT 10SM BKN095 07/03 A2903 RMK HARBOR WIND VRB03KT
PAKT 251300Z 29008KT 10SM SCT100 07/03 A2904
PAKT 250453Z 32005KT 10SM SCT090 06/03 A2905 RMK AO2 SLP836 HARBOR WIND 00000KT T00610033
PAKT 250353Z 32006KT 10SM CLR 06/03 A2905 RMK HARBOR WIND VRB05KT
PAKT 250253Z 28005KT 10SM CLR 07/03 A2905 RMK HARBOR WIND 24006KT
PAKT 250153Z 25003KT 10SM CLR 08/03 A2905 RMK HARBOR WIND VRB05KT
PAKT 250053Z 33006KT 10SM CLR 09/03 A2903 RMK HARBOR WIND 31010KT
PAKT 242353Z 33008KT 10SM CLR 11/01 A2903 RMK HARBOR WIND 29012KT
PAKT 242253Z 30009KT 10SM CLR 12/01 A2902 RMK HARBOR WIND 30012KT
PAKT 242153Z 31005G17KT 10SM CLR 13/M01 A2904 RMK HARBOR WIND 29010KT
PAKT 242053Z 31010KT 10SM CLR 12/00 A2907
PAKT 241953Z 20006G17KT 10SM CLR 11/M02 A2911
PAKT 241853Z 30010G17KT 10SM CLR 10/01 A2915 RMK HARBOR WIND 31010KT
PAKT 241753Z 31008KT 10SM CLR 09/00 A2918 RMK HARBOR WIND 28013KT
PAKT 241653Z 34008KT 10SM CLR 07/01 A2922
PAKT 241553Z 32008KT 10SM CLR 05/01 A2925 RMK HARBOR WIND VRB03KT
PAKT 241453Z 36006KT 10SM CLR 06/01 A2928
PAKT 241404Z 31006KT 10SM CLR 05/02 A2931 RMK HARBOR WIND 32004KT